sensor_id;sensor_type;location;lat;lon;timestamp;pressure;altitude;pressure_sealevel;temperature;humidity
60918;BME280;46792;38.854;-9.384;2023-03-14T00:00:20;100154.91;;;13.23;100.00
60918;BME280;46792;38.854;-9.384;2023-03-14T00:02:20;100158.69;;;13.22;100.00
60918;BME280;46792;38.854;-9.384;2023-03-14T00:04:21;100157.25;;;13.04;100.00
60918;BME280;46792;38.854;-9.384;2023-03-14T00:06:22;100147.75;;;13.01;100.00
60918;BME280;46792;38.854;-9.384;2023-03-14T00:08:23;100155.66;;;13.08;100.00
60918;BME280;46792;38.854;-9.384;2023-03-14T00:10:25;100158.09;;;13.04;100.00
60918;BME280;46792;38.854;-9.384;2023-03-14T00:12:25;100151.00;;;12.98;100.00
60918;BME280;46792;38.854;-9.384;2023-03-14T00:14:26;100155.91;;;13.01;100.00
60918;BME280;46792;38.854;-9.384;2023-03-14T00:16:26;100159.41;;;13.02;100.00
60918;BME280;46792;38.854;-9.384;2023-03-14T00:18:27;100159.75;;;13.21;100.00
60918;BME280;46792;38.854;-9.384;2023-03-14T00:20:27;100152.94;;;13.08;100.00
60918;BME280;46792;38.854;-9.384;2023-03-14T00:22:28;100160.03;;;13.14;100.00
60918;BME280;46792;38.854;-9.384;2023-03-14T00:24:29;100155.91;;;13.06;100.00
60918;BME280;46792;38.854;-9.384;2023-03-14T00:26:29;100162.41;;;13.05;100.00
60918;BME280;46792;38.854;-9.384;2023-03-14T00:28:30;100157.53;;;13.07;100.00
60918;BME280;46792;38.854;-9.384;2023-03-14T00:30:49;100162.13;;;13.02;100.00
60918;BME280;46792;38.854;-9.384;2023-03-14T00:32:49;100164.00;;;12.96;100.00
60918;BME280;46792;38.854;-9.384;2023-03-14T00:34:50;100155.06;;;13.01;100.00
60918;BME280;46792;38.854;-9.384;2023-03-14T00:36:50;100160.00;;;13.09;100.00
60918;BME280;46792;38.854;-9.384;2023-03-14T00:38:51;100162.41;;;13.11;100.00
60918;BME280;46792;38.854;-9.384;2023-03-14T00:40:52;100161.31;;;13.01;100.00
60918;BME280;46792;38.854;-9.384;2023-03-14T00:42:53;100164.28;;;13.00;100.00
60918;BME280;46792;38.854;-9.384;2023-03-14T00:44:53;100154.25;;;13.00;100.00
60918;BME280;46792;38.854;-9.384;2023-03-14T00:46:54;100162.38;;;12.95;100.00
60918;BME280;46792;38.854;-9.384;2023-03-14T00:48:54;100160.47;;;12.96;100.00
60918;BME280;46792;38.854;-9.384;2023-03-14T00:50:57;100163.44;;;12.94;100.00
60918;BME280;46792;38.854;-9.384;2023-03-14T00:52:58;100164.00;;;12.91;100.00
60918;BME280;46792;38.854;-9.384;2023-03-14T00:55:17;100162.63;;;12.93;100.00
60918;BME280;46792;38.854;-9.384;2023-03-14T00:57:18;100164.28;;;12.95;100.00
60918;BME280;46792;38.854;-9.384;2023-03-14T00:59:19;100159.66;;;12.95;100.00
60918;BME280;46792;38.854;-9.384;2023-03-14T01:01:19;100164.25;;;12.89;100.00
60918;BME280;46792;38.854;-9.384;2023-03-14T01:03:20;100169.13;;;12.92;100.00
60918;BME280;46792;38.854;-9.384;2023-03-14T01:05:24;100161.81;;;12.93;100.00
60918;BME280;46792;38.854;-9.384;2023-03-14T01:07:24;100167.22;;;12.93;100.00
60918;BME280;46792;38.854;-9.384;2023-03-14T01:12:09;100161.81;;;12.93;100.00
60918;BME280;46792;38.854;-9.384;2023-03-14T01:14:10;100156.63;;;12.86;100.00
60918;BME280;46792;38.854;-9.384;2023-03-14T01:16:11;100156.38;;;12.93;100.00
60918;BME280;46792;38.854;-9.384;2023-03-14T01:18:12;100160.72;;;12.94;100.00
60918;BME280;46792;38.854;-9.384;2023-03-14T01:20:14;100160.47;;;12.96;100.00
60918;BME280;46792;38.854;-9.384;2023-03-14T01:22:15;100161.25;;;12.86;100.00
60918;BME280;46792;38.854;-9.384;2023-03-14T01:24:16;100164.50;;;12.88;100.00
60918;BME280;46792;38.854;-9.384;2023-03-14T01:26:20;100162.59;;;12.88;100.00
60918;BME280;46792;38.854;-9.384;2023-03-14T01:28:21;100162.09;;;12.91;100.00
60918;BME280;46792;38.854;-9.384;2023-03-14T01:30:21;100156.38;;;12.93;100.00
60918;BME280;46792;38.854;-9.384;2023-03-14T01:32:22;100159.91;;;12.88;100.00
60918;BME280;46792;38.854;-9.384;2023-03-14T01:34:42;100166.16;;;12.89;100.00
60918;BME280;46792;38.854;-9.384;2023-03-14T01:36:43;100159.91;;;12.83;100.00
60918;BME280;46792;38.854;-9.384;2023-03-14T01:38:44;100165.06;;;12.90;100.00
60918;BME280;46792;38.854;-9.384;2023-03-14T01:40:48;100168.63;;;12.96;100.00
60918;BME280;46792;38.854;-9.384;2023-03-14T01:42:56;100170.50;;;12.90;100.00
60918;BME280;46792;38.854;-9.384;2023-03-14T01:44:59;100167.50;;;12.91;100.00
60918;BME280;46792;38.854;-9.384;2023-03-14T01:47:01;100174.59;;;12.98;100.00
60918;BME280;46792;38.854;-9.384;2023-03-14T01:53:56;100168.31;;;12.87;100.00
60918;BME280;46792;38.854;-9.384;2023-03-14T01:55:59;100165.03;;;12.85;100.00
60918;BME280;46792;38.854;-9.384;2023-03-14T01:58:05;100172.66;;;12.88;100.00
60918;BME280;46792;38.854;-9.384;2023-03-14T02:00:12;100176.16;;;12.83;100.00
60918;BME280;46792;38.854;-9.384;2023-03-14T02:02:15;100164.75;;;12.81;100.00
60918;BME280;46792;38.854;-9.384;2023-03-14T02:04:22;100164.00;;;12.91;100.00
60918;BME280;46792;38.854;-9.384;2023-03-14T02:06:28;100169.66;;;12.89;100.00
60918;BME280;46792;38.854;-9.384;2023-03-14T02:08:33;100173.19;;;12.95;100.00
60918;BME280;46792;38.854;-9.384;2023-03-14T02:10:43;100177.25;;;12.92;100.00
60918;BME280;46792;38.854;-9.384;2023-03-14T02:12:47;100179.69;;;12.89;100.00
60918;BME280;46792;38.854;-9.384;2023-03-14T02:14:58;100184.81;;;12.85;100.00
60918;BME280;46792;38.854;-9.384;2023-03-14T02:17:06;100184.28;;;12.88;100.00
60918;BME280;46792;38.854;-9.384;2023-03-14T02:22:18;100182.34;;;12.78;100.00
60918;BME280;46792;38.854;-9.384;2023-03-14T02:24:58;100188.34;;;12.86;100.00
60918;BME280;46792;38.854;-9.384;2023-03-14T02:27:14;100194.78;;;12.74;100.00
60918;BME280;46792;38.854;-9.384;2023-03-14T02:29:17;100189.63;;;12.73;100.00
60918;BME280;46792;38.854;-9.384;2023-03-14T02:31:19;100198.06;;;12.82;100.00
60918;BME280;46792;38.854;-9.384;2023-03-14T02:33:23;100197.84;;;12.88;100.00
60918;BME280;46792;38.854;-9.384;2023-03-14T02:35:36;100197.28;;;12.81;100.00
60918;BME280;46792;38.854;-9.384;2023-03-14T02:37:49;100189.06;;;12.71;100.00
60918;BME280;46792;38.854;-9.384;2023-03-14T02:39:52;100193.44;;;12.77;100.00
60918;BME280;46792;38.854;-9.384;2023-03-14T02:41:54;100194.25;;;12.77;100.00
60918;BME280;46792;38.854;-9.384;2023-03-14T02:43:54;100189.09;;;12.76;100.00
60918;BME280;46792;38.854;-9.384;2023-03-14T02:45:55;100186.41;;;12.76;100.00
60918;BME280;46792;38.854;-9.384;2023-03-14T02:48:01;100184.50;;;12.76;100.00
60918;BME280;46792;38.854;-9.384;2023-03-14T02:50:12;100182.06;;;12.75;100.00
60918;BME280;46792;38.854;-9.384;2023-03-14T02:52:13;100179.06;;;12.76;100.00
60918;BME280;46792;38.854;-9.384;2023-03-14T02:54:15;100181.03;;;12.86;100.00
60918;BME280;46792;38.854;-9.384;2023-03-14T02:56:16;100182.38;;;12.84;100.00
60918;BME280;46792;38.854;-9.384;2023-03-14T02:58:18;100175.34;;;12.88;100.00
60918;BME280;46792;38.854;-9.384;2023-03-14T03:00:21;100174.56;;;12.92;100.00
60918;BME280;46792;38.854;-9.384;2023-03-14T03:02:21;100178.63;;;12.90;100.00
60918;BME280;46792;38.854;-9.384;2023-03-14T03:04:22;100171.88;;;12.98;100.00
60918;BME280;46792;38.854;-9.384;2023-03-14T03:06:23;100178.09;;;12.98;100.00
60918;BME280;46792;38.854;-9.384;2023-03-14T03:08:25;100177.53;;;12.96;100.00
60918;BME280;46792;38.854;-9.384;2023-03-14T03:10:27;100176.44;;;12.92;100.00
60918;BME280;46792;38.854;-9.384;2023-03-14T03:12:28;100182.66;;;12.87;100.00
60918;BME280;46792;38.854;-9.384;2023-03-14T03:14:29;100181.03;;;12.86;100.00
60918;BME280;46792;38.854;-9.384;2023-03-14T03:16:33;100182.41;;;12.89;100.00
60918;BME280;46792;38.854;-9.384;2023-03-14T03:18:34;100172.97;;;12.97;100.00
60918;BME280;46792;38.854;-9.384;2023-03-14T03:20:35;100170.50;;;12.90;100.00
60918;BME280;46792;38.854;-9.384;2023-03-14T03:22:36;100176.41;;;12.82;100.00
60918;BME280;46792;38.854;-9.384;2023-03-14T03:24:37;100174.44;;;12.67;100.00
60918;BME280;46792;38.854;-9.384;2023-03-14T03:26:38;100161.38;;;12.58;100.00
60918;BME280;46792;38.854;-9.384;2023-03-14T03:28:41;100161.59;;;12.52;100.00
60918;BME280;46792;38.854;-9.384;2023-03-14T03:30:42;100155.91;;;12.48;100.00
60918;BME280;46792;38.854;-9.384;2023-03-14T03:32:43;100151.81;;;12.45;100.00
60918;BME280;46792;38.854;-9.384;2023-03-14T03:34:45;100153.94;;;12.38;100.00
60918;BME280;46792;38.854;-9.384;2023-03-14T03:36:46;100156.38;;;12.40;100.00
60918;BME280;46792;38.854;-9.384;2023-03-14T03:38:47;100156.38;;;12.40;100.00
60918;BME280;46792;38.854;-9.384;2023-03-14T03:40:47;100155.31;;;12.41;100.00
60918;BME280;46792;38.854;-9.384;2023-03-14T03:42:48;100145.31;;;12.41;100.00
60918;BME280;46792;38.854;-9.384;2023-03-14T03:44:49;100154.19;;;12.37;100.00
60918;BME280;46792;38.854;-9.384;2023-03-14T03:46:50;100146.34;;;12.35;100.00
60918;BME280;46792;38.854;-9.384;2023-03-14T03:48:56;100152.25;;;12.32;100.00
60918;BME280;46792;38.854;-9.384;2023-03-14T03:50:57;100153.91;;;12.33;100.00
60918;BME280;46792;38.854;-9.384;2023-03-14T03:52:58;100149.59;;;12.37;100.00
60918;BME280;46792;38.854;-9.384;2023-03-14T03:54:58;100144.75;;;12.39;100.00
60918;BME280;46792;38.854;-9.384;2023-03-14T03:56:59;100145.22;;;12.31;100.00
60918;BME280;46792;38.854;-9.384;2023-03-14T03:59:01;100142.75;;;12.24;100.00
60918;BME280;46792;38.854;-9.384;2023-03-14T04:01:02;100145.16;;;12.21;100.00
60918;BME280;46792;38.854;-9.384;2023-03-14T04:03:05;100144.66;;;12.24;100.00
60918;BME280;46792;38.854;-9.384;2023-03-14T04:05:07;100144.66;;;12.29;100.00
60918;BME280;46792;38.854;-9.384;2023-03-14T04:07:08;100146.84;;;12.32;100.00
60918;BME280;46792;38.854;-9.384;2023-03-14T04:09:10;100141.72;;;12.36;100.00
60918;BME280;46792;38.854;-9.384;2023-03-14T04:11:20;100146.84;;;12.32;100.00
60918;BME280;46792;38.854;-9.384;2023-03-14T04:13:36;100148.25;;;12.35;100.00
60918;BME280;46792;38.854;-9.384;2023-03-14T04:15:37;100137.13;;;12.36;100.00
60918;BME280;46792;38.854;-9.384;2023-03-14T04:17:58;100146.84;;;12.32;100.00
60918;BME280;46792;38.854;-9.384;2023-03-14T04:19:59;100145.44;;;12.24;100.00
60918;BME280;46792;38.854;-9.384;2023-03-14T04:22:08;100154.34;;;12.20;100.00
60918;BME280;46792;38.854;-9.384;2023-03-14T04:24:18;100143.25;;;12.16;100.00
60918;BME280;46792;38.854;-9.384;2023-03-14T04:26:22;100137.56;;;12.17;100.00
60918;BME280;46792;38.854;-9.384;2023-03-14T04:28:23;100144.59;;;12.19;100.00
60918;BME280;46792;38.854;-9.384;2023-03-14T04:30:23;100147.31;;;12.19;100.00
60918;BME280;46792;38.854;-9.384;2023-03-14T04:32:31;100148.38;;;12.17;100.00
60918;BME280;46792;38.854;-9.384;2023-03-14T04:34:33;100141.34;;;12.16;100.00
60918;BME280;46792;38.854;-9.384;2023-03-14T04:36:33;100137.56;;;12.17;100.00
60918;BME280;46792;38.854;-9.384;2023-03-14T04:38:38;100137.00;;;12.15;100.00
60918;BME280;46792;38.854;-9.384;2023-03-14T04:40:40;100127.50;;;12.13;100.00
60918;BME280;46792;38.854;-9.384;2023-03-14T04:42:41;100127.22;;;12.09;100.00
60918;BME280;46792;38.854;-9.384;2023-03-14T04:44:42;100140.78;;;12.14;100.00
60918;BME280;46792;38.854;-9.384;2023-03-14T04:46:44;100131.56;;;12.10;100.00
60918;BME280;46792;38.854;-9.384;2023-03-14T04:48:46;100133.78;;;12.19;100.00
60918;BME280;46792;38.854;-9.384;2023-03-14T04:50:48;100142.50;;;12.26;100.00
60918;BME280;46792;38.854;-9.384;2023-03-14T04:52:49;100138.97;;;12.25;100.00
60918;BME280;46792;38.854;-9.384;2023-03-14T04:54:50;100140.06;;;12.29;100.00
60918;BME280;46792;38.854;-9.384;2023-03-14T04:56:51;100137.41;;;12.35;100.00
60918;BME280;46792;38.854;-9.384;2023-03-14T04:58:53;100137.41;;;12.35;100.00
60918;BME280;46792;38.854;-9.384;2023-03-14T05:00:54;100136.59;;;12.34;100.00
60918;BME280;46792;38.854;-9.384;2023-03-14T05:03:11;100137.66;;;12.33;100.00
60918;BME280;46792;38.854;-9.384;2023-03-14T05:05:11;100139.25;;;12.29;100.00
60918;BME280;46792;38.854;-9.384;2023-03-14T05:07:20;100144.13;;;12.27;100.00
60918;BME280;46792;38.854;-9.384;2023-03-14T05:09:32;100139.22;;;12.24;100.00
60918;BME280;46792;38.854;-9.384;2023-03-14T05:11:55;100136.25;;;12.25;100.00
60918;BME280;46792;38.854;-9.384;2023-03-14T05:14:34;100142.78;;;12.29;100.00
60918;BME280;46792;38.854;-9.384;2023-03-14T05:16:38;100133.00;;;12.23;100.00
60918;BME280;46792;38.854;-9.384;2023-03-14T05:18:49;100140.81;;;12.20;100.00
60918;BME280;46792;38.854;-9.384;2023-03-14T05:21:21;100134.38;;;12.26;100.00
60918;BME280;46792;38.854;-9.384;2023-03-14T05:23:40;100138.16;;;12.30;100.00
60918;BME280;46792;38.854;-9.384;2023-03-14T05:25:59;100134.38;;;12.31;100.00
60918;BME280;46792;38.854;-9.384;2023-03-14T05:28:20;100145.22;;;12.31;100.00
60918;BME280;46792;38.854;-9.384;2023-03-14T05:30:39;100149.53;;;12.27;100.00
60918;BME280;46792;38.854;-9.384;2023-03-14T05:32:58;100152.44;;;12.20;100.00
60918;BME280;46792;38.854;-9.384;2023-03-14T05:35:16;100150.00;;;12.19;100.00
60918;BME280;46792;38.854;-9.384;2023-03-14T05:37:37;100148.91;;;12.14;100.00
60918;BME280;46792;38.854;-9.384;2023-03-14T05:40:08;100144.81;;;12.12;100.00
60918;BME280;46792;38.854;-9.384;2023-03-14T05:42:24;100155.59;;;12.07;100.00
60918;BME280;46792;38.854;-9.384;2023-03-14T05:44:43;100150.41;;;12.00;100.00
60918;BME280;46792;38.854;-9.384;2023-03-14T05:47:06;100153.88;;;11.95;100.00
60918;BME280;46792;38.854;-9.384;2023-03-14T05:49:25;100148.66;;;11.89;100.00
60918;BME280;46792;38.854;-9.384;2023-03-14T05:51:46;100159.19;;;11.85;100.00
60918;BME280;46792;38.854;-9.384;2023-03-14T05:54:19;100154.09;;;11.89;100.00
60918;BME280;46792;38.854;-9.384;2023-03-14T05:56:37;100161.34;;;11.83;100.00
60918;BME280;46792;38.854;-9.384;2023-03-14T05:58:57;100166.69;;;11.78;100.00
60918;BME280;46792;38.854;-9.384;2023-03-14T06:01:16;100162.88;;;11.74;100.00
60918;BME280;46792;38.854;-9.384;2023-03-14T06:03:34;100161.50;;;11.71;100.00
60918;BME280;46792;38.854;-9.384;2023-03-14T06:05:53;100174.22;;;11.70;100.00
60918;BME280;46792;38.854;-9.384;2023-03-14T06:07:56;100173.66;;;11.68;100.00
60918;BME280;46792;38.854;-9.384;2023-03-14T06:09:57;100167.19;;;11.69;100.00
60918;BME280;46792;38.854;-9.384;2023-03-14T06:11:59;100167.97;;;11.70;100.00
60918;BME280;46792;38.854;-9.384;2023-03-14T06:14:00;100171.75;;;11.69;100.00
60918;BME280;46792;38.854;-9.384;2023-03-14T06:16:01;100172.59;;;11.69;100.00
60918;BME280;46792;38.854;-9.384;2023-03-14T06:18:02;100175.59;;;11.73;100.00
60918;BME280;46792;38.854;-9.384;2023-03-14T06:20:08;100174.50;;;11.74;100.00
60918;BME280;46792;38.854;-9.384;2023-03-14T06:22:09;100168.84;;;11.76;100.00
60918;BME280;46792;38.854;-9.384;2023-03-14T06:24:11;100170.75;;;11.75;100.00
60918;BME280;46792;38.854;-9.384;2023-03-14T06:26:16;100174.22;;;11.70;100.00
60918;BME280;46792;38.854;-9.384;2023-03-14T06:28:17;100179.31;;;11.67;100.00
60918;BME280;46792;38.854;-9.384;2023-03-14T06:30:18;100177.66;;;11.66;100.00
60918;BME280;46792;38.854;-9.384;2023-03-14T06:32:19;100182.50;;;11.64;100.00
60918;BME280;46792;38.854;-9.384;2023-03-14T06:34:23;100177.16;;;11.69;100.00
60918;BME280;46792;38.854;-9.384;2023-03-14T06:36:24;100180.94;;;11.68;100.00
60918;BME280;46792;38.854;-9.384;2023-03-14T06:38:25;100186.03;;;11.64;100.00
60918;BME280;46792;38.854;-9.384;2023-03-14T06:40:29;100187.69;;;11.65;100.00
60918;BME280;46792;38.854;-9.384;2023-03-14T06:42:39;100176.59;;;11.67;100.00
60918;BME280;46792;38.854;-9.384;2023-03-14T06:44:40;100178.53;;;11.71;100.00
60918;BME280;46792;38.854;-9.384;2023-03-14T06:46:53;100186.09;;;11.69;100.00
60918;BME280;46792;38.854;-9.384;2023-03-14T06:48:53;100198.50;;;11.65;100.00
60918;BME280;46792;38.854;-9.384;2023-03-14T06:50:54;100198.19;;;11.62;100.00
60918;BME280;46792;38.854;-9.384;2023-03-14T06:52:57;100193.00;;;11.55;100.00
60918;BME280;46792;38.854;-9.384;2023-03-14T06:55:00;100194.81;;;11.49;100.00
60918;BME280;46792;38.854;-9.384;2023-03-14T06:57:01;100195.00;;;11.43;100.00
60918;BME280;46792;38.854;-9.384;2023-03-14T06:59:06;100198.97;;;11.35;100.00
60918;BME280;46792;38.854;-9.384;2023-03-14T07:01:19;100200.88;;;11.34;100.00
60918;BME280;46792;38.854;-9.384;2023-03-14T07:03:21;100202.75;;;11.34;100.00
60918;BME280;46792;38.854;-9.384;2023-03-14T07:05:40;100204.94;;;11.37;100.00
60918;BME280;46792;38.854;-9.384;2023-03-14T07:08:00;100210.34;;;11.37;100.00
60918;BME280;46792;38.854;-9.384;2023-03-14T07:10:00;100212.06;;;11.43;100.00
60918;BME280;46792;38.854;-9.384;2023-03-14T07:12:05;100212.06;;;11.43;100.00
60918;BME280;46792;38.854;-9.384;2023-03-14T07:14:06;100210.72;;;11.46;100.00
60918;BME280;46792;38.854;-9.384;2023-03-14T07:16:08;100218.03;;;11.45;100.00
60918;BME280;46792;38.854;-9.384;2023-03-14T07:18:29;100216.69;;;11.48;100.00
60918;BME280;46792;38.854;-9.384;2023-03-14T07:20:30;100219.69;;;11.51;100.00
60918;BME280;46792;38.854;-9.384;2023-03-14T07:22:33;100217.56;;;11.53;100.00
60918;BME280;46792;38.854;-9.384;2023-03-14T07:24:33;100225.44;;;11.55;100.00
60918;BME280;46792;38.854;-9.384;2023-03-14T07:26:53;100226.25;;;11.55;100.00
60918;BME280;46792;38.854;-9.384;2023-03-14T07:28:54;100235.44;;;11.54;100.00
60918;BME280;46792;38.854;-9.384;2023-03-14T07:30:56;100230.31;;;11.58;100.00
60918;BME280;46792;38.854;-9.384;2023-03-14T07:33:02;100232.03;;;11.64;100.00
60918;BME280;46792;38.854;-9.384;2023-03-14T07:35:07;100237.50;;;11.69;100.00
60918;BME280;46792;38.854;-9.384;2023-03-14T07:37:11;100236.47;;;11.76;100.00
60918;BME280;46792;38.854;-9.384;2023-03-14T07:39:11;100244.88;;;11.79;100.00
60918;BME280;46792;38.854;-9.384;2023-03-14T07:41:21;100249.03;;;11.87;100.00
60918;BME280;46792;38.854;-9.384;2023-03-14T07:43:43;100237.44;;;11.92;100.00
60918;BME280;46792;38.854;-9.384;2023-03-14T07:45:46;100244.03;;;12.01;100.00
60918;BME280;46792;38.854;-9.384;2023-03-14T07:47:47;100248.19;;;12.09;100.00
60918;BME280;46792;38.854;-9.384;2023-03-14T07:49:47;100242.00;;;12.13;100.00
60918;BME280;46792;38.854;-9.384;2023-03-14T07:51:48;100245.59;;;12.19;100.00
60918;BME280;46792;38.854;-9.384;2023-03-14T07:53:49;100236.69;;;12.24;100.00
60918;BME280;46792;38.854;-9.384;2023-03-14T07:55:54;100234.00;;;12.29;100.00
60918;BME280;46792;38.854;-9.384;2023-03-14T07:57:54;100244.06;;;12.34;100.00
60918;BME280;46792;38.854;-9.384;2023-03-14T07:59:55;100243.28;;;12.38;100.00
60918;BME280;46792;38.854;-9.384;2023-03-14T08:01:56;100249.28;;;12.40;100.00
60918;BME280;46792;38.854;-9.384;2023-03-14T08:06:35;100246.34;;;12.47;100.00
60918;BME280;46792;38.854;-9.384;2023-03-14T08:08:36;100253.94;;;12.50;100.00
60918;BME280;46792;38.854;-9.384;2023-03-14T08:10:36;100252.88;;;12.51;100.00
60918;BME280;46792;38.854;-9.384;2023-03-14T08:12:57;100262.38;;;12.54;100.00
60918;BME280;46792;38.854;-9.384;2023-03-14T08:14:58;100269.97;;;12.57;100.00
60918;BME280;46792;38.854;-9.384;2023-03-14T08:17:00;100268.91;;;12.58;100.00
60918;BME280;46792;38.854;-9.384;2023-03-14T08:19:00;100271.63;;;12.58;100.00
60918;BME280;46792;38.854;-9.384;2023-03-14T08:21:01;100276.38;;;12.45;100.00
60918;BME280;46792;38.854;-9.384;2023-03-14T08:23:02;100277.97;;;12.41;100.00
60918;BME280;46792;38.854;-9.384;2023-03-14T08:25:06;100273.03;;;12.33;100.00
60918;BME280;46792;38.854;-9.384;2023-03-14T08:27:07;100290.97;;;12.44;100.00
60918;BME280;46792;38.854;-9.384;2023-03-14T08:29:07;100286.22;;;12.57;100.00
60918;BME280;46792;38.854;-9.384;2023-03-14T08:31:08;100276.59;;;12.71;100.00
60918;BME280;46792;38.854;-9.384;2023-03-14T08:33:09;100283.69;;;12.83;100.00
60918;BME280;46792;38.854;-9.384;2023-03-14T08:35:10;100292.44;;;12.90;100.00
60918;BME280;46792;38.854;-9.384;2023-03-14T08:37:11;100295.97;;;12.96;100.00
60918;BME280;46792;38.854;-9.384;2023-03-14T08:39:12;100296.00;;;13.01;100.00
60918;BME280;46792;38.854;-9.384;2023-03-14T08:41:12;100291.69;;;13.05;100.00
60918;BME280;46792;38.854;-9.384;2023-03-14T08:45:32;100301.50;;;13.11;100.00
60918;BME280;46792;38.854;-9.384;2023-03-14T08:47:32;100309.44;;;13.23;100.00
60918;BME280;46792;38.854;-9.384;2023-03-14T08:49:33;100314.59;;;13.24;100.00
60918;BME280;46792;38.854;-9.384;2023-03-14T08:51:34;100310.84;;;13.31;100.00
60918;BME280;46792;38.854;-9.384;2023-03-14T08:53:35;100316.38;;;13.46;100.00
60918;BME280;46792;38.854;-9.384;2023-03-14T08:55:35;100317.69;;;13.44;100.00
60918;BME280;46792;38.854;-9.384;2023-03-14T08:57:36;100319.84;;;13.42;100.00
60918;BME280;46792;38.854;-9.384;2023-03-14T08:59:37;100320.69;;;13.42;100.00
60918;BME280;46792;38.854;-9.384;2023-03-14T09:01:37;100329.22;;;13.23;100.00
60918;BME280;46792;38.854;-9.384;2023-03-14T09:03:38;100326.78;;;13.22;100.00
60918;BME280;46792;38.854;-9.384;2023-03-14T09:05:39;100323.50;;;13.20;100.00
60918;BME280;46792;38.854;-9.384;2023-03-14T09:07:40;100330.56;;;13.26;100.00
60918;BME280;46792;38.854;-9.384;2023-03-14T09:09:41;100336.28;;;13.24;100.00
60918;BME280;46792;38.854;-9.384;2023-03-14T09:11:41;100342.81;;;13.29;100.00
60918;BME280;46792;38.854;-9.384;2023-03-14T09:13:42;100337.06;;;13.20;100.00
60918;BME280;46792;38.854;-9.384;2023-03-14T09:15:43;100344.72;;;13.33;100.00
60918;BME280;46792;38.854;-9.384;2023-03-14T09:17:44;100347.44;;;13.33;100.00
60918;BME280;46792;38.854;-9.384;2023-03-14T09:19:44;100333.56;;;13.24;100.00
60918;BME280;46792;38.854;-9.384;2023-03-14T09:21:45;100356.19;;;13.41;100.00
60918;BME280;46792;38.854;-9.384;2023-03-14T09:23:46;100349.31;;;13.28;100.00
60918;BME280;46792;38.854;-9.384;2023-03-14T09:25:47;100354.97;;;13.26;100.00
60918;BME280;46792;38.854;-9.384;2023-03-14T09:27:47;100354.69;;;13.22;100.00
60918;BME280;46792;38.854;-9.384;2023-03-14T09:29:48;100351.94;;;13.12;100.00
60918;BME280;46792;38.854;-9.384;2023-03-14T09:31:48;100352.78;;;13.18;100.00
60918;BME280;46792;38.854;-9.384;2023-03-14T09:33:49;100347.91;;;13.25;100.00
60918;BME280;46792;38.854;-9.384;2023-03-14T09:35:50;100355.69;;;13.49;100.00
60918;BME280;46792;38.854;-9.384;2023-03-14T09:37:51;100360.66;;;13.67;100.00
60918;BME280;46792;38.854;-9.384;2023-03-14T09:39:52;100356.88;;;13.74;100.00
60918;BME280;46792;38.854;-9.384;2023-03-14T09:41:55;100366.50;;;14.02;100.00
60918;BME280;46792;38.854;-9.384;2023-03-14T09:44:04;100360.28;;;14.12;100.00
60918;BME280;46792;38.854;-9.384;2023-03-14T09:46:09;100366.31;;;14.29;100.00
60918;BME280;46792;38.854;-9.384;2023-03-14T09:48:16;100356.53;;;14.54;100.00
60918;BME280;46792;38.854;-9.384;2023-03-14T09:50:19;100368.25;;;14.65;98.29
60918;BME280;46792;38.854;-9.384;2023-03-14T09:52:32;100358.47;;;14.59;96.84
60918;BME280;46792;38.854;-9.384;2023-03-14T09:54:36;100360.63;;;14.57;96.65
60918;BME280;46792;38.854;-9.384;2023-03-14T09:56:39;100358.47;;;14.59;92.86
60918;BME280;46792;38.854;-9.384;2023-03-14T09:58:41;100357.66;;;14.69;93.50
60918;BME280;46792;38.854;-9.384;2023-03-14T10:00:44;100360.66;;;14.78;91.90
60918;BME280;46792;38.854;-9.384;2023-03-14T10:03:20;100355.78;;;14.85;89.84
60918;BME280;46792;38.854;-9.384;2023-03-14T10:05:24;100362.56;;;14.93;90.38
60918;BME280;46792;38.854;-9.384;2023-03-14T10:07:32;100349.25;;;15.07;91.50
60918;BME280;46792;38.854;-9.384;2023-03-14T10:09:33;100348.13;;;15.23;89.52
60918;BME280;46792;38.854;-9.384;2023-03-14T10:11:34;100355.13;;;15.45;89.81
60918;BME280;46792;38.854;-9.384;2023-03-14T10:13:34;100355.66;;;15.47;89.13
60918;BME280;46792;38.854;-9.384;2023-03-14T10:15:37;100353.78;;;15.42;86.70
60918;BME280;46792;38.854;-9.384;2023-03-14T10:17:40;100351.84;;;15.48;86.81
60918;BME280;46792;38.854;-9.384;2023-03-14T10:19:53;100346.66;;;15.51;84.28
60918;BME280;46792;38.854;-9.384;2023-03-14T10:21:54;100351.00;;;15.63;81.41
60918;BME280;46792;38.854;-9.384;2023-03-14T10:24:07;100345.56;;;15.63;78.51
60918;BME280;46792;38.854;-9.384;2023-03-14T10:26:24;100344.41;;;15.74;79.27
60918;BME280;46792;38.854;-9.384;2023-03-14T10:28:31;100345.50;;;15.78;78.94
60918;BME280;46792;38.854;-9.384;2023-03-14T10:30:39;100344.97;;;15.71;76.50
60918;BME280;46792;38.854;-9.384;2023-03-14T10:32:45;100347.41;;;15.73;76.50
60918;BME280;46792;38.854;-9.384;2023-03-14T10:35:27;100345.56;;;15.63;72.12
60918;BME280;46792;38.854;-9.384;2023-03-14T10:37:27;100343.34;;;15.70;73.58
60918;BME280;46792;38.854;-9.384;2023-03-14T10:41:34;100328.94;;;15.70;75.28
60918;BME280;46792;38.854;-9.384;2023-03-14T10:43:35;100346.00;;;15.96;74.69
60918;BME280;46792;38.854;-9.384;2023-03-14T10:45:44;100341.81;;;16.09;75.83
60918;BME280;46792;38.854;-9.384;2023-03-14T10:47:50;100336.16;;;16.00;79.37
60918;BME280;46792;38.854;-9.384;2023-03-14T10:49:51;100336.59;;;16.18;79.08
60918;BME280;46792;38.854;-9.384;2023-03-14T10:51:51;100337.13;;;16.20;76.91
60918;BME280;46792;38.854;-9.384;2023-03-14T10:56:26;100325.13;;;16.21;75.89